Friend, Kansas
Current Conditions -  °F | °C
As of 6:54 PM on Tuesday 25 Nov 2014 (Local Time) from KGCK Reporting Station
Few Clouds Few Clouds  
Wind Chill: 31°   Ceiling: Unl
Heat Index: 37°   Visibility: 10mi
Dew Point: 15°   Wind: 8mph
Humidity: 41%   Direction: 190°S
Pressure: 29.91"   Gusts: NA
Location:  38.4822°N, 100.811°W
Report Text: KGCK 260054Z 19007KT 10SM FEW110 03/M09 A2991 RMK AO2 SLP139 T00281094
Loading
Personal Weather Stations






























Interactive Weather Map New forecast layout! Learn more

10-Day Weather Forecast

Advertisements
Track Severe Weather on mobile